sensor_id;sensor_type;location;lat;lon;timestamp;temperature;humidity
19397;DHT22;9834;48.076;11.878;2023-04-15T00:02:17;4.60;99.90
19397;DHT22;9834;48.076;11.878;2023-04-15T00:04:44;4.50;99.90
19397;DHT22;9834;48.076;11.878;2023-04-15T00:07:12;4.60;99.90
19397;DHT22;9834;48.076;11.878;2023-04-15T00:09:40;4.50;99.90
19397;DHT22;9834;48.076;11.878;2023-04-15T00:12:07;4.50;99.90
19397;DHT22;9834;48.076;11.878;2023-04-15T00:14:34;4.50;99.90
19397;DHT22;9834;48.076;11.878;2023-04-15T00:17:02;4.50;99.90
19397;DHT22;9834;48.076;11.878;2023-04-15T00:19:31;4.50;99.90
19397;DHT22;9834;48.076;11.878;2023-04-15T00:21:59;4.50;99.90
19397;DHT22;9834;48.076;11.878;2023-04-15T00:24:26;4.40;99.90
19397;DHT22;9834;48.076;11.878;2023-04-15T00:26:53;4.50;99.90
19397;DHT22;9834;48.076;11.878;2023-04-15T00:29:20;4.50;99.90
19397;DHT22;9834;48.076;11.878;2023-04-15T00:31:47;4.40;99.90
19397;DHT22;9834;48.076;11.878;2023-04-15T00:34:14;4.50;99.90
19397;DHT22;9834;48.076;11.878;2023-04-15T00:36:42;4.40;99.90
19397;DHT22;9834;48.076;11.878;2023-04-15T00:39:09;4.50;99.90
19397;DHT22;9834;48.076;11.878;2023-04-15T00:41:36;4.50;99.90
19397;DHT22;9834;48.076;11.878;2023-04-15T00:44:05;4.50;99.90
19397;DHT22;9834;48.076;11.878;2023-04-15T00:46:35;4.50;99.90
19397;DHT22;9834;48.076;11.878;2023-04-15T00:49:03;4.50;99.90
19397;DHT22;9834;48.076;11.878;2023-04-15T00:51:31;4.50;99.90
19397;DHT22;9834;48.076;11.878;2023-04-15T00:54:02;4.50;99.90
19397;DHT22;9834;48.076;11.878;2023-04-15T00:56:29;4.50;99.90
19397;DHT22;9834;48.076;11.878;2023-04-15T00:58:58;4.60;99.90
19397;DHT22;9834;48.076;11.878;2023-04-15T01:01:25;4.60;99.90
19397;DHT22;9834;48.076;11.878;2023-04-15T01:03:55;4.60;99.90
19397;DHT22;9834;48.076;11.878;2023-04-15T01:06:22;4.70;99.90
19397;DHT22;9834;48.076;11.878;2023-04-15T01:08:50;4.70;99.90
19397;DHT22;9834;48.076;11.878;2023-04-15T01:11:18;4.60;99.90
19397;DHT22;9834;48.076;11.878;2023-04-15T01:13:45;4.60;99.90
19397;DHT22;9834;48.076;11.878;2023-04-15T01:16:13;4.60;99.90
19397;DHT22;9834;48.076;11.878;2023-04-15T01:18:41;4.70;99.90
19397;DHT22;9834;48.076;11.878;2023-04-15T01:21:09;4.60;99.90
19397;DHT22;9834;48.076;11.878;2023-04-15T01:23:36;4.60;99.90
19397;DHT22;9834;48.076;11.878;2023-04-15T01:26:06;4.60;99.90
19397;DHT22;9834;48.076;11.878;2023-04-15T01:28:34;4.60;99.90
19397;DHT22;9834;48.076;11.878;2023-04-15T01:31:08;4.60;99.90
19397;DHT22;9834;48.076;11.878;2023-04-15T01:33:36;4.60;99.90
19397;DHT22;9834;48.076;11.878;2023-04-15T01:36:05;4.60;99.90
19397;DHT22;9834;48.076;11.878;2023-04-15T01:38:33;4.60;99.90
19397;DHT22;9834;48.076;11.878;2023-04-15T01:41:00;4.60;99.90
19397;DHT22;9834;48.076;11.878;2023-04-15T01:43:30;4.60;99.90
19397;DHT22;9834;48.076;11.878;2023-04-15T01:45:57;4.60;99.90
19397;DHT22;9834;48.076;11.878;2023-04-15T01:48:23;4.50;99.90
19397;DHT22;9834;48.076;11.878;2023-04-15T01:50:53;4.60;99.90
19397;DHT22;9834;48.076;11.878;2023-04-15T01:53:20;4.60;99.90
19397;DHT22;9834;48.076;11.878;2023-04-15T01:55:46;4.60;99.90
19397;DHT22;9834;48.076;11.878;2023-04-15T01:58:13;4.70;99.90
19397;DHT22;9834;48.076;11.878;2023-04-15T02:00:42;4.60;99.90
19397;DHT22;9834;48.076;11.878;2023-04-15T02:03:10;4.60;99.90
19397;DHT22;9834;48.076;11.878;2023-04-15T02:05:36;4.60;99.90
19397;DHT22;9834;48.076;11.878;2023-04-15T02:08:04;4.60;99.90
19397;DHT22;9834;48.076;11.878;2023-04-15T02:10:31;4.60;99.90
19397;DHT22;9834;48.076;11.878;2023-04-15T02:12:58;4.60;99.90
19397;DHT22;9834;48.076;11.878;2023-04-15T02:15:25;4.60;99.90
19397;DHT22;9834;48.076;11.878;2023-04-15T02:17:54;4.50;99.90
19397;DHT22;9834;48.076;11.878;2023-04-15T02:20:21;4.50;99.90
19397;DHT22;9834;48.076;11.878;2023-04-15T02:22:48;4.50;99.90
19397;DHT22;9834;48.076;11.878;2023-04-15T02:25:15;4.50;99.90
19397;DHT22;9834;48.076;11.878;2023-04-15T02:27:43;4.60;99.90
19397;DHT22;9834;48.076;11.878;2023-04-15T02:30:10;4.50;99.90
19397;DHT22;9834;48.076;11.878;2023-04-15T02:32:37;4.60;99.90
19397;DHT22;9834;48.076;11.878;2023-04-15T02:35:07;4.60;99.90
19397;DHT22;9834;48.076;11.878;2023-04-15T02:37:36;4.60;99.90
19397;DHT22;9834;48.076;11.878;2023-04-15T02:40:07;4.50;99.90
19397;DHT22;9834;48.076;11.878;2023-04-15T02:42:36;4.60;99.90
19397;DHT22;9834;48.076;11.878;2023-04-15T02:45:04;4.60;99.90
19397;DHT22;9834;48.076;11.878;2023-04-15T02:47:31;4.60;99.90
19397;DHT22;9834;48.076;11.878;2023-04-15T02:49:58;4.60;99.90
19397;DHT22;9834;48.076;11.878;2023-04-15T02:52:27;4.60;99.90
19397;DHT22;9834;48.076;11.878;2023-04-15T02:54:54;4.70;99.90
19397;DHT22;9834;48.076;11.878;2023-04-15T02:57:25;4.70;99.90
19397;DHT22;9834;48.076;11.878;2023-04-15T02:59:53;4.70;99.90
19397;DHT22;9834;48.076;11.878;2023-04-15T03:02:20;4.80;99.90
19397;DHT22;9834;48.076;11.878;2023-04-15T03:04:47;4.70;99.90
19397;DHT22;9834;48.076;11.878;2023-04-15T03:07:14;4.70;99.90
19397;DHT22;9834;48.076;11.878;2023-04-15T03:09:42;4.70;99.90
19397;DHT22;9834;48.076;11.878;2023-04-15T03:12:09;4.80;99.90
19397;DHT22;9834;48.076;11.878;2023-04-15T03:14:36;4.70;99.90
19397;DHT22;9834;48.076;11.878;2023-04-15T03:17:03;4.70;99.90
19397;DHT22;9834;48.076;11.878;2023-04-15T03:19:30;4.80;99.90
19397;DHT22;9834;48.076;11.878;2023-04-15T03:21:57;4.80;99.90
19397;DHT22;9834;48.076;11.878;2023-04-15T03:24:24;4.80;99.90
19397;DHT22;9834;48.076;11.878;2023-04-15T03:26:53;4.70;99.90
19397;DHT22;9834;48.076;11.878;2023-04-15T03:29:20;4.80;99.90
19397;DHT22;9834;48.076;11.878;2023-04-15T03:31:47;4.80;99.90
19397;DHT22;9834;48.076;11.878;2023-04-15T03:34:14;4.70;99.90
19397;DHT22;9834;48.076;11.878;2023-04-15T03:36:41;4.80;99.90
19397;DHT22;9834;48.076;11.878;2023-04-15T03:39:08;4.80;99.90
19397;DHT22;9834;48.076;11.878;2023-04-15T03:41:35;4.70;99.90
19397;DHT22;9834;48.076;11.878;2023-04-15T03:44:03;4.60;99.90
19397;DHT22;9834;48.076;11.878;2023-04-15T03:46:31;4.70;99.90
19397;DHT22;9834;48.076;11.878;2023-04-15T03:48:57;4.60;99.90
19397;DHT22;9834;48.076;11.878;2023-04-15T03:51:24;4.70;99.90
19397;DHT22;9834;48.076;11.878;2023-04-15T03:53:52;4.80;99.90
19397;DHT22;9834;48.076;11.878;2023-04-15T03:56:18;4.70;99.90
19397;DHT22;9834;48.076;11.878;2023-04-15T03:58:46;4.60;99.90
19397;DHT22;9834;48.076;11.878;2023-04-15T04:01:14;4.70;99.90
19397;DHT22;9834;48.076;11.878;2023-04-15T04:03:41;4.80;99.90
19397;DHT22;9834;48.076;11.878;2023-04-15T04:06:08;4.80;99.90
19397;DHT22;9834;48.076;11.878;2023-04-15T04:08:37;4.80;99.90
19397;DHT22;9834;48.076;11.878;2023-04-15T04:11:04;4.80;99.90
19397;DHT22;9834;48.076;11.878;2023-04-15T04:13:31;5.00;99.90
19397;DHT22;9834;48.076;11.878;2023-04-15T04:15:58;4.80;99.90
19397;DHT22;9834;48.076;11.878;2023-04-15T04:18:27;4.80;99.90
19397;DHT22;9834;48.076;11.878;2023-04-15T04:20:54;4.70;99.90
19397;DHT22;9834;48.076;11.878;2023-04-15T04:23:22;4.70;99.90
19397;DHT22;9834;48.076;11.878;2023-04-15T04:25:49;4.70;99.90
19397;DHT22;9834;48.076;11.878;2023-04-15T04:28:16;4.70;99.90
19397;DHT22;9834;48.076;11.878;2023-04-15T04:30:43;4.70;99.90
19397;DHT22;9834;48.076;11.878;2023-04-15T04:33:10;4.70;99.90
19397;DHT22;9834;48.076;11.878;2023-04-15T04:35:38;4.70;99.90
19397;DHT22;9834;48.076;11.878;2023-04-15T04:38:05;4.70;99.90
19397;DHT22;9834;48.076;11.878;2023-04-15T04:40:32;4.70;99.90
19397;DHT22;9834;48.076;11.878;2023-04-15T04:42:59;4.60;99.90
19397;DHT22;9834;48.076;11.878;2023-04-15T04:45:26;4.60;99.90
19397;DHT22;9834;48.076;11.878;2023-04-15T04:47:54;4.60;99.90
19397;DHT22;9834;48.076;11.878;2023-04-15T04:50:21;4.60;99.90
19397;DHT22;9834;48.076;11.878;2023-04-15T04:52:49;4.60;99.90
19397;DHT22;9834;48.076;11.878;2023-04-15T04:55:16;4.60;99.90
19397;DHT22;9834;48.076;11.878;2023-04-15T04:57:43;4.60;99.90
19397;DHT22;9834;48.076;11.878;2023-04-15T05:00:11;4.60;99.90
19397;DHT22;9834;48.076;11.878;2023-04-15T05:02:38;4.60;99.90
19397;DHT22;9834;48.076;11.878;2023-04-15T05:05:07;4.60;99.90
19397;DHT22;9834;48.076;11.878;2023-04-15T05:07:34;4.60;99.90
19397;DHT22;9834;48.076;11.878;2023-04-15T05:10:03;4.70;99.90
19397;DHT22;9834;48.076;11.878;2023-04-15T05:12:30;4.70;99.90
19397;DHT22;9834;48.076;11.878;2023-04-15T05:14:57;4.80;99.90
19397;DHT22;9834;48.076;11.878;2023-04-15T05:17:24;4.70;99.90
19397;DHT22;9834;48.076;11.878;2023-04-15T05:19:51;4.70;99.90
19397;DHT22;9834;48.076;11.878;2023-04-15T05:22:19;4.70;99.90
19397;DHT22;9834;48.076;11.878;2023-04-15T05:24:45;4.70;99.90
19397;DHT22;9834;48.076;11.878;2023-04-15T05:27:15;4.70;99.90
19397;DHT22;9834;48.076;11.878;2023-04-15T05:29:43;4.70;99.90
19397;DHT22;9834;48.076;11.878;2023-04-15T05:32:11;4.70;99.90
19397;DHT22;9834;48.076;11.878;2023-04-15T05:34:38;4.80;99.90
19397;DHT22;9834;48.076;11.878;2023-04-15T05:37:05;4.90;99.90
19397;DHT22;9834;48.076;11.878;2023-04-15T05:39:32;5.00;99.90
19397;DHT22;9834;48.076;11.878;2023-04-15T05:41:59;4.90;99.90
19397;DHT22;9834;48.076;11.878;2023-04-15T05:44:28;4.90;99.90
19397;DHT22;9834;48.076;11.878;2023-04-15T05:46:55;5.00;99.90
19397;DHT22;9834;48.076;11.878;2023-04-15T05:49:22;5.00;99.90
19397;DHT22;9834;48.076;11.878;2023-04-15T05:51:49;5.10;99.90
19397;DHT22;9834;48.076;11.878;2023-04-15T05:54:16;5.10;99.90
19397;DHT22;9834;48.076;11.878;2023-04-15T05:56:43;5.10;99.90
19397;DHT22;9834;48.076;11.878;2023-04-15T05:59:10;5.20;99.90
19397;DHT22;9834;48.076;11.878;2023-04-15T06:01:38;5.20;99.90
19397;DHT22;9834;48.076;11.878;2023-04-15T06:04:05;5.30;99.90
19397;DHT22;9834;48.076;11.878;2023-04-15T06:06:33;5.30;99.90
19397;DHT22;9834;48.076;11.878;2023-04-15T06:08:59;5.40;99.90
19397;DHT22;9834;48.076;11.878;2023-04-15T06:11:26;5.30;99.90
19397;DHT22;9834;48.076;11.878;2023-04-15T06:13:53;5.20;99.90
19397;DHT22;9834;48.076;11.878;2023-04-15T06:16:21;5.20;99.90
19397;DHT22;9834;48.076;11.878;2023-04-15T06:18:50;5.30;99.90
19397;DHT22;9834;48.076;11.878;2023-04-15T06:21:17;5.30;99.90
19397;DHT22;9834;48.076;11.878;2023-04-15T06:23:44;5.40;99.90
19397;DHT22;9834;48.076;11.878;2023-04-15T06:26:12;5.50;99.90
19397;DHT22;9834;48.076;11.878;2023-04-15T06:28:38;5.60;99.90
19397;DHT22;9834;48.076;11.878;2023-04-15T06:31:06;5.70;99.90
19397;DHT22;9834;48.076;11.878;2023-04-15T06:33:33;5.80;99.90
19397;DHT22;9834;48.076;11.878;2023-04-15T06:36:01;5.80;99.90
19397;DHT22;9834;48.076;11.878;2023-04-15T06:38:28;5.90;99.90
19397;DHT22;9834;48.076;11.878;2023-04-15T06:40:55;5.90;99.90
19397;DHT22;9834;48.076;11.878;2023-04-15T06:43:22;5.90;99.90
19397;DHT22;9834;48.076;11.878;2023-04-15T06:45:50;5.90;99.90
19397;DHT22;9834;48.076;11.878;2023-04-15T06:48:17;6.00;99.90
19397;DHT22;9834;48.076;11.878;2023-04-15T06:50:44;6.10;99.90
19397;DHT22;9834;48.076;11.878;2023-04-15T06:53:12;6.20;99.90
19397;DHT22;9834;48.076;11.878;2023-04-15T06:55:39;6.30;99.90
19397;DHT22;9834;48.076;11.878;2023-04-15T06:58:06;6.40;99.90
19397;DHT22;9834;48.076;11.878;2023-04-15T07:00:33;6.50;99.90
19397;DHT22;9834;48.076;11.878;2023-04-15T07:03:03;6.60;99.90
19397;DHT22;9834;48.076;11.878;2023-04-15T07:05:30;6.70;99.90
19397;DHT22;9834;48.076;11.878;2023-04-15T07:07:58;6.70;99.90
19397;DHT22;9834;48.076;11.878;2023-04-15T07:10:26;6.70;99.90
19397;DHT22;9834;48.076;11.878;2023-04-15T07:12:53;6.80;99.90
19397;DHT22;9834;48.076;11.878;2023-04-15T07:15:20;6.90;99.90
19397;DHT22;9834;48.076;11.878;2023-04-15T07:17:48;6.90;99.90
19397;DHT22;9834;48.076;11.878;2023-04-15T07:20:15;7.00;99.90
19397;DHT22;9834;48.076;11.878;2023-04-15T07:22:42;7.00;99.90
19397;DHT22;9834;48.076;11.878;2023-04-15T07:25:09;7.10;99.90
19397;DHT22;9834;48.076;11.878;2023-04-15T07:27:38;7.20;99.90
19397;DHT22;9834;48.076;11.878;2023-04-15T07:30:06;7.20;99.90
19397;DHT22;9834;48.076;11.878;2023-04-15T07:32:34;7.30;99.90
19397;DHT22;9834;48.076;11.878;2023-04-15T07:35:01;7.30;99.90
19397;DHT22;9834;48.076;11.878;2023-04-15T07:37:29;7.30;99.90
19397;DHT22;9834;48.076;11.878;2023-04-15T07:39:56;7.30;99.90
19397;DHT22;9834;48.076;11.878;2023-04-15T07:42:23;7.30;99.90
19397;DHT22;9834;48.076;11.878;2023-04-15T07:44:52;7.30;99.90
19397;DHT22;9834;48.076;11.878;2023-04-15T07:47:19;7.30;99.90
19397;DHT22;9834;48.076;11.878;2023-04-15T07:49:46;7.30;99.90
19397;DHT22;9834;48.076;11.878;2023-04-15T07:52:13;7.30;99.90
19397;DHT22;9834;48.076;11.878;2023-04-15T07:54:41;7.30;99.90
19397;DHT22;9834;48.076;11.878;2023-04-15T07:57:08;7.40;99.90
19397;DHT22;9834;48.076;11.878;2023-04-15T07:59:35;7.50;99.90
19397;DHT22;9834;48.076;11.878;2023-04-15T08:02:04;7.60;99.90
19397;DHT22;9834;48.076;11.878;2023-04-15T08:04:31;7.60;99.90
19397;DHT22;9834;48.076;11.878;2023-04-15T08:06:58;7.70;99.90
19397;DHT22;9834;48.076;11.878;2023-04-15T08:09:25;7.60;99.90
19397;DHT22;9834;48.076;11.878;2023-04-15T08:11:52;7.70;99.90
19397;DHT22;9834;48.076;11.878;2023-04-15T08:14:19;7.80;99.90
19397;DHT22;9834;48.076;11.878;2023-04-15T08:16:46;7.80;99.90
19397;DHT22;9834;48.076;11.878;2023-04-15T08:19:15;7.80;99.90
19397;DHT22;9834;48.076;11.878;2023-04-15T08:21:42;7.90;99.90
19397;DHT22;9834;48.076;11.878;2023-04-15T08:24:09;8.10;99.90
19397;DHT22;9834;48.076;11.878;2023-04-15T08:26:36;8.30;99.90
19397;DHT22;9834;48.076;11.878;2023-04-15T08:29:03;8.50;99.90
19397;DHT22;9834;48.076;11.878;2023-04-15T08:31:31;8.60;99.90
19397;DHT22;9834;48.076;11.878;2023-04-15T08:33:59;8.90;99.90
19397;DHT22;9834;48.076;11.878;2023-04-15T08:36:27;9.10;99.90
19397;DHT22;9834;48.076;11.878;2023-04-15T08:38:54;9.50;99.90
19397;DHT22;9834;48.076;11.878;2023-04-15T08:41:22;9.80;99.90
19397;DHT22;9834;48.076;11.878;2023-04-15T08:43:56;9.90;99.90
19397;DHT22;9834;48.076;11.878;2023-04-15T08:46:24;9.80;99.90
19397;DHT22;9834;48.076;11.878;2023-04-15T08:48:52;9.90;99.90
19397;DHT22;9834;48.076;11.878;2023-04-15T08:51:21;9.80;99.90
19397;DHT22;9834;48.076;11.878;2023-04-15T08:53:51;9.60;99.70
19397;DHT22;9834;48.076;11.878;2023-04-15T08:56:18;9.50;99.80
19397;DHT22;9834;48.076;11.878;2023-04-15T08:58:50;9.40;99.90
19397;DHT22;9834;48.076;11.878;2023-04-15T09:01:17;9.30;99.90
19397;DHT22;9834;48.076;11.878;2023-04-15T09:03:48;9.50;99.90
19397;DHT22;9834;48.076;11.878;2023-04-15T09:06:16;9.50;99.90
19397;DHT22;9834;48.076;11.878;2023-04-15T09:08:43;9.80;99.90
19397;DHT22;9834;48.076;11.878;2023-04-15T09:11:12;10.10;97.20
19397;DHT22;9834;48.076;11.878;2023-04-15T09:13:39;10.40;98.30
19397;DHT22;9834;48.076;11.878;2023-04-15T09:16:06;10.60;95.20
19397;DHT22;9834;48.076;11.878;2023-04-15T09:18:34;10.60;92.60
19397;DHT22;9834;48.076;11.878;2023-04-15T09:21:06;10.30;93.60
19397;DHT22;9834;48.076;11.878;2023-04-15T09:23:34;10.40;94.40
19397;DHT22;9834;48.076;11.878;2023-04-15T09:26:01;10.20;93.40
19397;DHT22;9834;48.076;11.878;2023-04-15T09:28:30;10.00;95.40
19397;DHT22;9834;48.076;11.878;2023-04-15T09:30:57;9.70;96.90
19397;DHT22;9834;48.076;11.878;2023-04-15T09:33:26;9.40;98.20
19397;DHT22;9834;48.076;11.878;2023-04-15T09:35:58;9.20;99.90
19397;DHT22;9834;48.076;11.878;2023-04-15T09:38:26;9.10;99.90
19397;DHT22;9834;48.076;11.878;2023-04-15T09:40:54;9.00;99.90
19397;DHT22;9834;48.076;11.878;2023-04-15T09:43:21;8.90;99.90
19397;DHT22;9834;48.076;11.878;2023-04-15T09:45:52;8.70;99.90
19397;DHT22;9834;48.076;11.878;2023-04-15T09:48:20;8.60;99.90
19397;DHT22;9834;48.076;11.878;2023-04-15T09:50:50;8.50;99.90
19397;DHT22;9834;48.076;11.878;2023-04-15T09:53:19;8.20;99.90
19397;DHT22;9834;48.076;11.878;2023-04-15T09:55:50;7.90;99.90
19397;DHT22;9834;48.076;11.878;2023-04-15T09:58:18;7.50;99.90
19397;DHT22;9834;48.076;11.878;2023-04-15T10:00:47;7.40;99.90
19397;DHT22;9834;48.076;11.878;2023-04-15T10:03:18;7.40;99.90
19397;DHT22;9834;48.076;11.878;2023-04-15T10:05:47;7.60;99.90
19397;DHT22;9834;48.076;11.878;2023-04-15T10:08:17;7.70;99.90
19397;DHT22;9834;48.076;11.878;2023-04-15T10:10:45;7.90;99.90
19397;DHT22;9834;48.076;11.878;2023-04-15T10:13:13;8.10;99.90
19397;DHT22;9834;48.076;11.878;2023-04-15T10:15:44;8.30;99.90
19397;DHT22;9834;48.076;11.878;2023-04-15T10:18:16;8.40;99.90
19397;DHT22;9834;48.076;11.878;2023-04-15T10:20:46;8.50;99.90
19397;DHT22;9834;48.076;11.878;2023-04-15T10:23:14;8.60;99.90
19397;DHT22;9834;48.076;11.878;2023-04-15T10:25:41;8.80;99.90
19397;DHT22;9834;48.076;11.878;2023-04-15T10:28:09;8.80;99.90
19397;DHT22;9834;48.076;11.878;2023-04-15T10:30:37;9.00;99.90
19397;DHT22;9834;48.076;11.878;2023-04-15T10:33:05;9.00;99.90
19397;DHT22;9834;48.076;11.878;2023-04-15T10:35:35;9.10;99.90
19397;DHT22;9834;48.076;11.878;2023-04-15T10:38:33;9.20;99.90
19397;DHT22;9834;48.076;11.878;2023-04-15T10:41:14;9.40;99.90
19397;DHT22;9834;48.076;11.878;2023-04-15T10:43:47;9.60;99.90
19397;DHT22;9834;48.076;11.878;2023-04-15T10:46:19;9.60;99.90
19397;DHT22;9834;48.076;11.878;2023-04-15T10:48:48;9.40;99.90
19397;DHT22;9834;48.076;11.878;2023-04-15T10:51:26;9.40;99.90
19397;DHT22;9834;48.076;11.878;2023-04-15T10:53:56;9.30;98.30
19397;DHT22;9834;48.076;11.878;2023-04-15T10:56:23;9.30;99.00
19397;DHT22;9834;48.076;11.878;2023-04-15T10:58:50;9.40;99.90
19397;DHT22;9834;48.076;11.878;2023-04-15T11:01:19;9.40;98.10
19397;DHT22;9834;48.076;11.878;2023-04-15T11:03:48;9.40;98.10
19397;DHT22;9834;48.076;11.878;2023-04-15T11:06:17;9.40;97.10
19397;DHT22;9834;48.076;11.878;2023-04-15T11:08:55;9.40;97.20
19397;DHT22;9834;48.076;11.878;2023-04-15T11:14:05;9.90;96.70
19397;DHT22;9834;48.076;11.878;2023-04-15T11:16:41;10.00;94.20
19397;DHT22;9834;48.076;11.878;2023-04-15T11:19:09;10.30;93.50
19397;DHT22;9834;48.076;11.878;2023-04-15T11:21:38;10.50;92.60
19397;DHT22;9834;48.076;11.878;2023-04-15T11:24:05;10.70;93.00
19397;DHT22;9834;48.076;11.878;2023-04-15T11:26:33;10.80;91.20
19397;DHT22;9834;48.076;11.878;2023-04-15T11:29:00;10.80;90.60
19397;DHT22;9834;48.076;11.878;2023-04-15T11:31:27;10.80;89.40
19397;DHT22;9834;48.076;11.878;2023-04-15T11:33:56;10.80;90.30
19397;DHT22;9834;48.076;11.878;2023-04-15T11:36:24;10.80;87.50
19397;DHT22;9834;48.076;11.878;2023-04-15T11:38:54;10.80;86.30
19397;DHT22;9834;48.076;11.878;2023-04-15T11:41:21;10.70;85.30
19397;DHT22;9834;48.076;11.878;2023-04-15T11:43:49;10.70;85.90
19397;DHT22;9834;48.076;11.878;2023-04-15T11:46:17;11.00;84.40
19397;DHT22;9834;48.076;11.878;2023-04-15T11:48:45;11.10;83.40
19397;DHT22;9834;48.076;11.878;2023-04-15T11:51:13;11.10;85.50
19397;DHT22;9834;48.076;11.878;2023-04-15T11:53:42;11.10;82.30
19397;DHT22;9834;48.076;11.878;2023-04-15T11:56:17;10.80;79.40
19397;DHT22;9834;48.076;11.878;2023-04-15T11:58:44;10.60;85.90
19397;DHT22;9834;48.076;11.878;2023-04-15T12:01:11;10.60;86.10
19397;DHT22;9834;48.076;11.878;2023-04-15T12:03:41;10.60;84.80
19397;DHT22;9834;48.076;11.878;2023-04-15T12:06:11;10.60;88.00
19397;DHT22;9834;48.076;11.878;2023-04-15T12:09:00;10.60;84.00
19397;DHT22;9834;48.076;11.878;2023-04-15T12:11:32;10.50;84.00
19397;DHT22;9834;48.076;11.878;2023-04-15T12:14:03;10.50;83.10
19397;DHT22;9834;48.076;11.878;2023-04-15T12:16:31;10.30;81.50
19397;DHT22;9834;48.076;11.878;2023-04-15T12:19:01;10.20;81.00
19397;DHT22;9834;48.076;11.878;2023-04-15T12:21:33;10.10;82.00
19397;DHT22;9834;48.076;11.878;2023-04-15T12:24:01;9.90;82.90
19397;DHT22;9834;48.076;11.878;2023-04-15T12:26:33;9.80;85.60
19397;DHT22;9834;48.076;11.878;2023-04-15T12:29:02;9.80;89.00
19397;DHT22;9834;48.076;11.878;2023-04-15T12:31:29;9.80;90.10
19397;DHT22;9834;48.076;11.878;2023-04-15T12:33:57;9.70;89.90
19397;DHT22;9834;48.076;11.878;2023-04-15T12:36:25;9.60;91.50
19397;DHT22;9834;48.076;11.878;2023-04-15T12:38:53;9.50;90.90
19397;DHT22;9834;48.076;11.878;2023-04-15T12:41:21;9.40;91.20
19397;DHT22;9834;48.076;11.878;2023-04-15T12:43:50;9.20;90.10
19397;DHT22;9834;48.076;11.878;2023-04-15T12:46:17;9.20;90.30
19397;DHT22;9834;48.076;11.878;2023-04-15T12:48:44;9.00;92.40
19397;DHT22;9834;48.076;11.878;2023-04-15T12:51:12;8.80;90.40
19397;DHT22;9834;48.076;11.878;2023-04-15T12:53:39;8.80;91.70
19397;DHT22;9834;48.076;11.878;2023-04-15T12:56:07;9.00;91.00
19397;DHT22;9834;48.076;11.878;2023-04-15T12:58:34;9.10;88.90
19397;DHT22;9834;48.076;11.878;2023-04-15T13:01:02;9.10;84.50
19397;DHT22;9834;48.076;11.878;2023-04-15T13:03:29;9.20;84.00
19397;DHT22;9834;48.076;11.878;2023-04-15T13:05:56;9.30;83.40
19397;DHT22;9834;48.076;11.878;2023-04-15T13:08:24;9.50;85.30
19397;DHT22;9834;48.076;11.878;2023-04-15T13:10:51;9.50;82.70
19397;DHT22;9834;48.076;11.878;2023-04-15T13:13:18;9.50;84.00
19397;DHT22;9834;48.076;11.878;2023-04-15T13:15:45;9.40;83.30
19397;DHT22;9834;48.076;11.878;2023-04-15T13:18:14;9.40;82.60
19397;DHT22;9834;48.076;11.878;2023-04-15T13:20:41;9.20;82.40
19397;DHT22;9834;48.076;11.878;2023-04-15T13:23:08;9.10;80.70
19397;DHT22;9834;48.076;11.878;2023-04-15T13:25:35;8.90;83.80
19397;DHT22;9834;48.076;11.878;2023-04-15T13:28:02;8.80;83.80
19397;DHT22;9834;48.076;11.878;2023-04-15T13:30:30;8.70;83.20
19397;DHT22;9834;48.076;11.878;2023-04-15T13:32:57;8.70;80.50
19397;DHT22;9834;48.076;11.878;2023-04-15T13:35:25;8.70;80.90
19397;DHT22;9834;48.076;11.878;2023-04-15T13:37:53;8.50;82.80
19397;DHT22;9834;48.076;11.878;2023-04-15T13:40:20;8.50;85.30
19397;DHT22;9834;48.076;11.878;2023-04-15T13:42:47;8.60;84.70
19397;DHT22;9834;48.076;11.878;2023-04-15T13:45:14;8.50;84.50
19397;DHT22;9834;48.076;11.878;2023-04-15T13:47:42;8.50;86.80
19397;DHT22;9834;48.076;11.878;2023-04-15T13:50:09;8.50;87.50
19397;DHT22;9834;48.076;11.878;2023-04-15T13:52:39;8.50;90.40
19397;DHT22;9834;48.076;11.878;2023-04-15T13:55:07;8.50;91.40
19397;DHT22;9834;48.076;11.878;2023-04-15T13:57:34;8.60;92.10
19397;DHT22;9834;48.076;11.878;2023-04-15T14:00:02;8.70;92.80
19397;DHT22;9834;48.076;11.878;2023-04-15T14:02:29;8.80;93.90
19397;DHT22;9834;48.076;11.878;2023-04-15T14:04:56;8.80;93.70
19397;DHT22;9834;48.076;11.878;2023-04-15T14:07:23;9.10;95.00
19397;DHT22;9834;48.076;11.878;2023-04-15T14:09:52;8.90;96.00
19397;DHT22;9834;48.076;11.878;2023-04-15T14:12:19;9.00;96.80
19397;DHT22;9834;48.076;11.878;2023-04-15T14:14:46;8.90;96.90
19397;DHT22;9834;48.076;11.878;2023-04-15T14:17:13;8.80;97.30
19397;DHT22;9834;48.076;11.878;2023-04-15T14:19:40;8.60;97.30
19397;DHT22;9834;48.076;11.878;2023-04-15T14:22:07;8.50;99.50
19397;DHT22;9834;48.076;11.878;2023-04-15T14:24:34;8.30;98.30
19397;DHT22;9834;48.076;11.878;2023-04-15T14:27:04;8.20;99.60
19397;DHT22;9834;48.076;11.878;2023-04-15T14:29:33;8.10;99.90
19397;DHT22;9834;48.076;11.878;2023-04-15T14:32:00;8.10;99.90
19397;DHT22;9834;48.076;11.878;2023-04-15T14:34:27;8.00;99.90
19397;DHT22;9834;48.076;11.878;2023-04-15T14:36:54;8.00;99.90
19397;DHT22;9834;48.076;11.878;2023-04-15T14:39:21;7.90;99.90
19397;DHT22;9834;48.076;11.878;2023-04-15T14:41:48;7.90;99.90
19397;DHT22;9834;48.076;11.878;2023-04-15T14:44:16;7.90;99.90
19397;DHT22;9834;48.076;11.878;2023-04-15T14:46:43;7.80;99.90
19397;DHT22;9834;48.076;11.878;2023-04-15T14:49:10;7.80;99.90
19397;DHT22;9834;48.076;11.878;2023-04-15T14:51:37;7.80;99.90
19397;DHT22;9834;48.076;11.878;2023-04-15T14:54:04;7.90;99.90
19397;DHT22;9834;48.076;11.878;2023-04-15T14:56:31;7.90;99.90
19397;DHT22;9834;48.076;11.878;2023-04-15T14:58:58;8.00;98.50
19397;DHT22;9834;48.076;11.878;2023-04-15T15:01:27;8.10;98.20
19397;DHT22;9834;48.076;11.878;2023-04-15T15:03:54;8.20;98.10
19397;DHT22;9834;48.076;11.878;2023-04-15T15:06:22;8.30;97.30
19397;DHT22;9834;48.076;11.878;2023-04-15T15:08:49;8.30;96.10
19397;DHT22;9834;48.076;11.878;2023-04-15T15:11:16;8.20;96.20
19397;DHT22;9834;48.076;11.878;2023-04-15T15:13:44;8.20;96.50
19397;DHT22;9834;48.076;11.878;2023-04-15T15:16:11;8.20;96.40
19397;DHT22;9834;48.076;11.878;2023-04-15T15:18:40;8.10;97.00
19397;DHT22;9834;48.076;11.878;2023-04-15T15:21:07;8.10;97.70
19397;DHT22;9834;48.076;11.878;2023-04-15T15:23:34;8.10;98.60
19397;DHT22;9834;48.076;11.878;2023-04-15T15:26:01;8.10;99.10
19397;DHT22;9834;48.076;11.878;2023-04-15T15:28:28;8.10;99.90
19397;DHT22;9834;48.076;11.878;2023-04-15T15:30:55;8.10;99.90
19397;DHT22;9834;48.076;11.878;2023-04-15T15:33:22;8.10;99.90
19397;DHT22;9834;48.076;11.878;2023-04-15T15:35:51;8.00;99.90
19397;DHT22;9834;48.076;11.878;2023-04-15T15:38:18;8.00;99.90
19397;DHT22;9834;48.076;11.878;2023-04-15T15:40:45;7.80;99.90
19397;DHT22;9834;48.076;11.878;2023-04-15T15:43:12;7.70;99.90
19397;DHT22;9834;48.076;11.878;2023-04-15T15:45:39;7.60;99.90
19397;DHT22;9834;48.076;11.878;2023-04-15T15:48:06;7.50;99.90
19397;DHT22;9834;48.076;11.878;2023-04-15T15:50:33;7.40;99.90
19397;DHT22;9834;48.076;11.878;2023-04-15T15:53:02;7.50;99.90